createdAt,value
2018-01-14T00:01:08.391Z,1002.85
2018-01-14T00:02:18.102Z,1002.84
2018-01-14T00:03:27.810Z,1002.87
2018-01-14T00:04:37.779Z,1002.88
2018-01-14T00:05:47.221Z,1002.95
2018-01-14T00:06:56.925Z,1002.9
2018-01-14T00:08:06.372Z,1002.93
2018-01-14T00:09:16.082Z,1002.99
2018-01-14T00:10:25.531Z,1002.92
2018-01-14T00:11:35.241Z,1002.89
2018-01-14T00:12:44.950Z,1002.88
2018-01-14T00:13:54.923Z,1002.87
2018-01-14T00:15:04.730Z,1002.85
2018-01-14T00:16:14.173Z,1002.85
2018-01-14T00:17:23.876Z,1002.88
2018-01-14T00:18:33.848Z,1002.78
2018-01-14T00:19:43.824Z,1002.79
2018-01-14T00:20:53.584Z,1002.73
2018-01-14T00:22:03.555Z,1002.71
2018-01-14T00:23:13.259Z,1002.67
2018-01-14T00:24:23.233Z,1002.66
2018-01-14T00:25:32.954Z,1002.63
2018-01-14T00:26:42.976Z,1002.62
2018-01-14T00:27:52.679Z,1002.63
2018-01-14T00:29:02.389Z,1002.61
2018-01-14T00:30:12.368Z,1002.65
2018-01-14T00:31:21.814Z,1002.62
2018-01-14T00:32:31.264Z,1002.65
2018-01-14T00:33:41.239Z,1002.62
2018-01-14T00:34:51.216Z,1002.67
2018-01-14T00:36:00.941Z,1002.64
2018-01-14T00:37:10.919Z,1002.64
2018-01-14T00:38:20.646Z,1002.61
2018-01-14T00:39:30.363Z,1002.63
2018-01-14T00:40:40.072Z,1002.6
2018-01-14T00:41:49.780Z,1002.57
2018-01-14T00:42:59.223Z,1002.58
2018-01-14T00:44:09.030Z,1002.56
2018-01-14T00:45:18.746Z,1002.57
2018-01-14T00:46:28.733Z,1002.53
2018-01-14T00:47:38.705Z,1002.51
2018-01-14T00:48:48.158Z,1002.5
2018-01-14T00:49:58.181Z,1002.51
2018-01-14T00:51:08.169Z,1002.52
2018-01-14T00:52:18.142Z,1002.53
2018-01-14T00:53:28.116Z,1002.51
2018-01-14T00:54:38.090Z,1002.5
2018-01-14T00:55:47.536Z,1002.45
2018-01-14T00:56:57.245Z,1002.49
2018-01-14T00:58:06.954Z,1002.49
2018-01-14T00:59:16.927Z,1002.46
2018-01-14T01:00:26.639Z,1002.42
2018-01-14T01:01:36.345Z,1002.39
2018-01-14T01:02:46.316Z,1002.39
2018-01-14T01:03:56.026Z,1002.37
2018-01-14T01:05:05.736Z,1002.3
2018-01-14T01:06:15.450Z,1002.29
2018-01-14T01:07:25.161Z,1002.28
2018-01-14T01:08:35.137Z,1002.21
2018-01-14T01:09:44.850Z,1002.18
2018-01-14T01:10:54.825Z,1002.12
2018-01-14T01:12:04.268Z,1002.14
2018-01-14T01:13:14.237Z,1002.11
2018-01-14T01:14:23.951Z,1002.12
2018-01-14T01:15:33.661Z,1002.14
2018-01-14T01:16:43.644Z,1002.21
2018-01-14T01:17:53.624Z,1002.2
2018-01-14T01:19:03.594Z,1002.18
2018-01-14T01:20:13.566Z,1002.13
2018-01-14T01:21:23.542Z,1002.18
2018-01-14T01:22:33.515Z,1002.16
2018-01-14T01:23:43.225Z,1002.21
2018-01-14T01:24:53.197Z,1002.19
2018-01-14T01:26:02.914Z,1002.16
2018-01-14T01:27:12.889Z,1002.2
2018-01-14T01:28:22.603Z,1002.21
2018-01-14T01:29:32.318Z,1002.15
2018-01-14T01:30:42.028Z,1002.15
2018-01-14T01:31:51.743Z,1002.17
2018-01-14T01:33:01.188Z,1002.15
2018-01-14T01:34:10.893Z,1002.14
2018-01-14T01:35:20.866Z,1002.15
2018-01-14T01:36:30.575Z,1002.11
2018-01-14T01:37:40.606Z,1002.12
2018-01-14T01:38:50.315Z,1002.07
2018-01-14T01:40:00.290Z,1002.12
2018-01-14T01:41:09.746Z,1002.06
2018-01-14T01:42:19.769Z,1002.04
2018-01-14T01:43:29.213Z,1002.01
2018-01-14T01:44:39.185Z,1002
2018-01-14T01:45:48.902Z,1001.97
2018-01-14T01:46:58.921Z,1001.94
2018-01-14T01:48:08.632Z,1001.91
2018-01-14T01:49:18.610Z,1001.91
2018-01-14T01:50:28.328Z,1001.83
2018-01-14T01:51:38.033Z,1001.83
2018-01-14T01:52:48.003Z,1001.83
2018-01-14T01:53:57.707Z,1001.84
2018-01-14T01:55:07.680Z,1001.87
2018-01-14T01:56:17.124Z,1001.9
2018-01-14T01:57:27.094Z,1001.87
2018-01-14T01:58:36.803Z,1001.85
2018-01-14T01:59:46.767Z,1001.85
2018-01-14T02:00:56.746Z,1001.83
2018-01-14T02:02:06.727Z,1001.82
2018-01-14T02:03:16.704Z,1001.8
2018-01-14T02:04:26.417Z,1001.82
2018-01-14T02:05:36.120Z,1001.81
2018-01-14T02:06:46.092Z,1001.8
2018-01-14T02:07:55.800Z,1001.76
2018-01-14T02:09:05.242Z,1001.76
2018-01-14T02:10:15.215Z,1001.73
2018-01-14T02:11:25.187Z,1001.77
2018-01-14T02:12:35.170Z,1001.71
2018-01-14T02:13:45.139Z,1001.74
2018-01-14T02:14:55.156Z,1001.68
2018-01-14T02:16:05.123Z,1001.63
2018-01-14T02:17:14.835Z,1001.62
2018-01-14T02:18:24.807Z,1001.57
2018-01-14T02:19:34.783Z,1001.59
2018-01-14T02:20:44.488Z,1001.57
2018-01-14T02:21:54.457Z,1001.56
2018-01-14T02:23:04.163Z,1001.51
2018-01-14T02:24:13.606Z,1001.53
2018-01-14T02:25:23.580Z,1001.5
2018-01-14T02:26:33.021Z,1001.48
2018-01-14T02:27:42.991Z,1001.44
2018-01-14T02:28:52.961Z,1001.43
2018-01-14T02:30:02.932Z,1001.39
2018-01-14T02:31:12.380Z,1001.39
2018-01-14T02:32:22.088Z,1001.4
2018-01-14T02:33:32.071Z,1001.38
2018-01-14T02:34:42.102Z,1001.36
2018-01-14T02:35:52.079Z,1001.3
2018-01-14T02:37:01.786Z,1001.34
2018-01-14T02:38:11.765Z,1001.34
2018-01-14T02:39:21.736Z,1001.33
2018-01-14T02:40:31.454Z,1001.26
2018-01-14T02:41:41.430Z,1001.31
2018-01-14T02:42:51.400Z,1001.36
2018-01-14T02:44:01.105Z,1001.38
2018-01-14T02:45:10.816Z,1001.37
2018-01-14T02:46:20.806Z,1001.38
2018-01-14T02:47:30.519Z,1001.33
2018-01-14T02:48:39.698Z,1001.3
2018-01-14T02:49:49.667Z,1001.24
2018-01-14T02:50:59.373Z,1001.22
2018-01-14T02:52:09.352Z,1001.25
2018-01-14T02:53:19.065Z,1001.23
2018-01-14T02:54:29.040Z,1001.27
2018-01-14T02:55:38.497Z,1001.28
2018-01-14T02:56:48.215Z,1001.29
2018-01-14T02:57:58.187Z,1001.28
2018-01-14T02:59:07.640Z,1001.27
2018-01-14T03:00:17.616Z,1001.16
2018-01-14T03:01:27.588Z,1001.12
2018-01-14T03:02:37.303Z,1001.09
2018-01-14T03:03:47.157Z,1001
2018-01-14T03:04:57.135Z,1001
2018-01-14T03:06:06.579Z,1001.01
2018-01-14T03:07:16.286Z,1000.96
2018-01-14T03:08:25.997Z,1000.93
2018-01-14T03:09:35.804Z,1000.94
2018-01-14T03:10:45.778Z,1000.92
2018-01-14T03:11:55.489Z,1000.9
2018-01-14T03:13:05.469Z,1000.88
2018-01-14T03:14:15.241Z,1000.88
2018-01-14T03:15:25.051Z,1000.86
2018-01-14T03:16:34.761Z,1000.82
2018-01-14T03:17:44.201Z,1000.8
2018-01-14T03:18:53.961Z,1000.75
2018-01-14T03:20:03.931Z,1000.76
2018-01-14T03:21:13.907Z,1000.68
2018-01-14T03:22:23.876Z,1000.7
2018-01-14T03:23:33.316Z,1000.71
2018-01-14T03:24:42.766Z,1000.72
2018-01-14T03:25:52.474Z,1000.74
2018-01-14T03:27:02.501Z,1000.73
2018-01-14T03:28:12.473Z,1000.79
2018-01-14T03:29:22.452Z,1000.71
2018-01-14T03:30:32.161Z,1000.7
2018-01-14T03:31:41.888Z,1000.72
2018-01-14T03:32:51.904Z,1000.7
2018-01-14T03:34:01.614Z,1000.69
2018-01-14T03:35:11.367Z,1000.75
2018-01-14T03:36:21.338Z,1000.75
2018-01-14T03:37:30.781Z,1000.76
2018-01-14T03:38:40.750Z,1000.7
2018-01-14T03:39:50.451Z,1000.67
2018-01-14T03:40:59.894Z,1000.67
2018-01-14T03:42:09.865Z,1000.62
2018-01-14T03:43:19.839Z,1000.61
2018-01-14T03:44:29.015Z,1000.59
2018-01-14T03:45:38.990Z,1000.58
2018-01-14T03:46:48.964Z,1000.58
2018-01-14T03:47:58.406Z,1000.67
2018-01-14T03:49:08.123Z,1000.69
2018-01-14T03:50:18.141Z,1000.65
2018-01-14T03:51:27.845Z,1000.65
2018-01-14T03:52:37.814Z,1000.65
2018-01-14T03:53:47.792Z,1000.64
2018-01-14T03:54:57.760Z,1000.59
2018-01-14T03:56:06.938Z,1000.63
2018-01-14T03:57:16.384Z,1000.57
2018-01-14T03:58:25.836Z,1000.57
2018-01-14T03:59:35.281Z,1000.62
2018-01-14T04:00:44.997Z,1000.62
2018-01-14T04:05:05.029Z,1000.46
2018-01-14T04:06:14.772Z,1000.46
2018-01-14T04:07:24.743Z,1000.42
2018-01-14T04:08:34.718Z,1000.46
2018-01-14T04:09:44.423Z,1000.56
2018-01-14T04:10:54.192Z,1000.54
2018-01-14T04:12:03.909Z,1000.54
2018-01-14T04:13:13.617Z,1000.55
2018-01-14T04:14:23.595Z,1000.51
2018-01-14T04:15:33.046Z,1000.5
2018-01-14T04:16:42.755Z,1000.54
2018-01-14T04:17:52.726Z,1000.44
2018-01-14T04:19:02.492Z,1000.45
2018-01-14T04:20:12.512Z,1000.4
2018-01-14T04:21:22.478Z,1000.44
2018-01-14T04:22:32.183Z,1000.36
2018-01-14T04:23:41.891Z,1000.43
2018-01-14T04:24:51.602Z,1000.41
2018-01-14T04:26:01.587Z,1000.45
2018-01-14T04:27:11.614Z,1000.46
2018-01-14T04:28:21.593Z,1000.46
2018-01-14T04:29:31.305Z,1000.49
2018-01-14T04:30:41.327Z,1000.44
2018-01-14T04:31:51.304Z,1000.4
2018-01-14T04:33:01.277Z,1000.34
2018-01-14T04:34:11.247Z,1000.31
2018-01-14T04:35:20.952Z,1000.37
2018-01-14T04:36:30.662Z,1000.34
2018-01-14T04:37:40.632Z,1000.3
2018-01-14T04:38:50.608Z,1000.35
2018-01-14T04:40:00.060Z,1000.34
2018-01-14T04:41:09.768Z,1000.36
2018-01-14T04:42:19.741Z,1000.33
2018-01-14T04:43:29.448Z,1000.28
2018-01-14T04:44:39.472Z,1000.33
2018-01-14T04:45:49.178Z,1000.29
2018-01-14T04:46:58.617Z,1000.27
2018-01-14T04:48:08.322Z,1000.2
2018-01-14T04:49:18.027Z,1000.19
2018-01-14T04:50:27.730Z,1000.16
2018-01-14T04:51:37.700Z,1000.13
2018-01-14T04:52:47.677Z,1000.09
2018-01-14T04:53:57.656Z,1000.08
2018-01-14T04:55:07.662Z,1000
2018-01-14T04:56:17.633Z,1000.03
2018-01-14T04:57:27.341Z,999.98
2018-01-14T04:58:36.784Z,999.99
2018-01-14T04:59:46.757Z,999.94
2018-01-14T05:00:56.462Z,999.94
2018-01-14T05:02:06.334Z,999.94
2018-01-14T05:03:16.038Z,999.94
2018-01-14T05:04:25.478Z,999.95
2018-01-14T05:05:35.199Z,999.93
2018-01-14T05:06:45.173Z,999.89
2018-01-14T05:07:54.878Z,999.96
2018-01-14T05:09:04.848Z,999.92
2018-01-14T05:10:14.818Z,999.93
2018-01-14T05:11:24.786Z,999.95
2018-01-14T05:12:34.756Z,999.92
2018-01-14T05:13:44.568Z,999.88
2018-01-14T05:14:54.010Z,999.85
2018-01-14T05:16:03.720Z,999.86
2018-01-14T05:17:13.424Z,999.84
2018-01-14T05:18:22.873Z,999.82
2018-01-14T05:19:32.579Z,999.85
2018-01-14T05:20:42.286Z,999.89
2018-01-14T05:21:52.265Z,999.88
2018-01-14T05:23:02.304Z,999.88
2018-01-14T05:24:12.281Z,999.81
2018-01-14T05:25:21.997Z,999.82
2018-01-14T05:26:31.712Z,999.78
2018-01-14T05:27:41.416Z,999.77
2018-01-14T05:28:51.118Z,999.77
2018-01-14T05:30:01.091Z,999.73
2018-01-14T05:31:10.542Z,999.74
2018-01-14T05:32:20.526Z,999.73
2018-01-14T05:33:29.973Z,999.76
2018-01-14T05:34:39.687Z,999.8
2018-01-14T05:35:49.392Z,999.77
2018-01-14T05:36:59.361Z,999.78
2018-01-14T05:38:09.068Z,999.71
2018-01-14T05:39:18.819Z,999.67
2018-01-14T05:40:28.801Z,999.63
2018-01-14T05:41:38.841Z,999.6
2018-01-14T05:42:48.811Z,999.56
2018-01-14T05:43:58.516Z,999.54
2018-01-14T05:45:08.484Z,999.55
2018-01-14T05:46:18.456Z,999.52
2018-01-14T05:47:28.170Z,999.48
2018-01-14T05:48:37.611Z,999.5
2018-01-14T05:49:47.579Z,999.48
2018-01-14T05:50:57.289Z,999.44
2018-01-14T05:52:07.261Z,999.45
2018-01-14T05:53:17.234Z,999.48
2018-01-14T05:54:26.942Z,999.49
2018-01-14T05:55:36.961Z,999.5
2018-01-14T05:56:46.977Z,999.51
2018-01-14T05:57:56.946Z,999.51
2018-01-14T05:59:06.653Z,999.57
2018-01-14T06:00:16.623Z,999.54
2018-01-14T06:01:26.069Z,999.54
2018-01-14T06:02:35.773Z,999.53
2018-01-14T06:03:45.741Z,999.56
2018-01-14T06:04:55.710Z,999.54
2018-01-14T06:06:05.517Z,999.51
2018-01-14T06:07:15.487Z,999.49
2018-01-14T06:08:24.934Z,999.49
2018-01-14T06:09:34.912Z,999.47
2018-01-14T06:10:44.618Z,999.45
2018-01-14T06:11:54.593Z,999.46
2018-01-14T06:13:04.561Z,999.5
2018-01-14T06:14:14.540Z,999.45
2018-01-14T06:15:24.512Z,999.48
2018-01-14T06:16:34.483Z,999.42
2018-01-14T06:17:43.928Z,999.37
2018-01-14T06:18:53.635Z,999.33
2018-01-14T06:20:03.346Z,999.39
2018-01-14T06:21:13.050Z,999.36
2018-01-14T06:22:23.021Z,999.48
2018-01-14T06:23:33.042Z,999.46
2018-01-14T06:24:43.023Z,999.55
2018-01-14T06:25:52.997Z,999.58
2018-01-14T06:27:02.704Z,999.53
2018-01-14T06:28:12.409Z,999.49
2018-01-14T06:29:22.382Z,999.46
2018-01-14T06:30:32.098Z,999.42
2018-01-14T06:31:41.805Z,999.42
2018-01-14T06:32:51.779Z,999.44
2018-01-14T06:34:01.763Z,999.4
2018-01-14T06:35:11.468Z,999.36
2018-01-14T06:36:21.439Z,999.33
2018-01-14T06:37:31.419Z,999.29
2018-01-14T06:38:41.178Z,999.29
2018-01-14T06:39:50.889Z,999.32
2018-01-14T06:41:00.594Z,999.29
2018-01-14T06:42:10.571Z,999.23
2018-01-14T06:43:20.548Z,999.24
2018-01-14T06:44:30.260Z,999.27
2018-01-14T06:45:40.228Z,999.28
2018-01-14T06:46:50.250Z,999.26
2018-01-14T06:48:00.226Z,999.26
2018-01-14T06:49:10.264Z,999.2
2018-01-14T06:50:20.237Z,999.2
2018-01-14T06:51:29.945Z,999.14
2018-01-14T06:52:39.655Z,999.18
2018-01-14T06:53:49.361Z,999.21
2018-01-14T06:54:59.332Z,999.17
2018-01-14T06:56:09.304Z,999.2
2018-01-14T06:57:19.285Z,999.22
2018-01-14T06:58:29.253Z,999.21
2018-01-14T06:59:38.970Z,999.26
2018-01-14T07:00:48.945Z,999.28
2018-01-14T07:01:58.975Z,999.26
2018-01-14T07:03:08.684Z,999.23
2018-01-14T07:04:18.662Z,999.26
2018-01-14T07:05:28.368Z,999.24
2018-01-14T07:06:38.076Z,999.26
2018-01-14T07:07:48.043Z,999.26
2018-01-14T07:08:57.753Z,999.13
2018-01-14T07:10:07.729Z,999.16
2018-01-14T07:11:17.439Z,999.13
2018-01-14T07:12:27.411Z,999.14
2018-01-14T07:13:37.392Z,999.11
2018-01-14T07:14:47.366Z,999.07
2018-01-14T07:15:57.437Z,999.11
2018-01-14T07:17:07.146Z,999.07
2018-01-14T07:18:17.120Z,999.12
2018-01-14T07:19:26.827Z,999.07
2018-01-14T07:20:36.800Z,999.05
2018-01-14T07:21:46.510Z,999.07
2018-01-14T07:22:56.488Z,999.07
2018-01-14T07:24:06.463Z,999.06
2018-01-14T07:25:16.175Z,999.07
2018-01-14T07:26:26.145Z,999.06
2018-01-14T07:27:36.127Z,999.05
2018-01-14T07:28:46.097Z,999.04
2018-01-14T07:29:56.069Z,999.01
2018-01-14T07:31:05.783Z,999.06
2018-01-14T07:32:15.752Z,998.98
2018-01-14T07:33:25.729Z,998.98
2018-01-14T07:34:35.437Z,998.98
2018-01-14T07:35:45.410Z,998.93
2018-01-14T07:36:55.384Z,998.93
2018-01-14T07:38:05.091Z,998.93
2018-01-14T07:39:15.069Z,998.91
2018-01-14T07:40:24.775Z,998.92
2018-01-14T07:41:34.233Z,998.89
2018-01-14T07:42:43.946Z,998.82
2018-01-14T07:43:53.920Z,998.86
2018-01-14T07:45:03.890Z,998.87
2018-01-14T07:46:13.594Z,998.88
2018-01-14T07:47:23.566Z,998.9
2018-01-14T07:48:33.008Z,998.84
2018-01-14T07:49:42.714Z,998.82
2018-01-14T07:50:52.693Z,998.84
2018-01-14T07:52:02.401Z,998.83
2018-01-14T07:53:12.377Z,998.84
2018-01-14T07:54:22.360Z,998.79
2018-01-14T07:55:31.803Z,998.72
2018-01-14T07:56:41.772Z,998.75
2018-01-14T07:57:51.743Z,998.75
2018-01-14T07:59:01.469Z,998.74
2018-01-14T08:00:11.448Z,998.76
2018-01-14T08:01:21.210Z,998.72
2018-01-14T08:02:31.021Z,998.7
2018-01-14T08:03:40.836Z,998.69
2018-01-14T08:04:50.819Z,998.76
2018-01-14T08:06:00.532Z,998.71
2018-01-14T08:07:09.978Z,998.67
2018-01-14T08:08:19.742Z,998.67
2018-01-14T08:09:28.921Z,998.64
2018-01-14T08:10:38.641Z,998.61
2018-01-14T08:11:48.674Z,998.63
2018-01-14T08:12:58.644Z,998.65
2018-01-14T08:14:08.365Z,998.63
2018-01-14T08:15:18.076Z,998.66
2018-01-14T08:16:28.057Z,998.66
2018-01-14T08:17:38.031Z,998.65
2018-01-14T08:18:48.015Z,998.58
2018-01-14T08:19:57.822Z,998.58
2018-01-14T08:21:07.800Z,998.58
2018-01-14T08:22:17.506Z,998.6
2018-01-14T08:23:27.216Z,998.63
2018-01-14T08:24:37.197Z,998.64
2018-01-14T08:25:47.227Z,998.6
2018-01-14T08:26:57.199Z,998.64
2018-01-14T08:28:06.914Z,998.58
2018-01-14T08:29:16.892Z,998.61
2018-01-14T08:30:26.867Z,998.6
2018-01-14T08:31:36.853Z,998.57
2018-01-14T08:32:46.297Z,998.58
2018-01-14T08:33:56.003Z,998.57
2018-01-14T08:35:05.446Z,998.56
2018-01-14T08:36:15.155Z,998.52
2018-01-14T08:37:24.606Z,998.53
2018-01-14T08:38:34.319Z,998.57
2018-01-14T08:39:43.766Z,998.57
2018-01-14T08:40:53.737Z,998.51
2018-01-14T08:42:03.455Z,998.52
2018-01-14T08:43:13.429Z,998.58
2018-01-14T08:44:23.147Z,998.58
2018-01-14T08:45:32.328Z,998.54
2018-01-14T08:46:41.509Z,998.53
2018-01-14T08:47:51.219Z,998.56
2018-01-14T08:49:01.193Z,998.55
2018-01-14T08:50:11.166Z,998.54
2018-01-14T08:51:20.885Z,998.55
2018-01-14T08:52:30.616Z,998.52
2018-01-14T08:53:40.589Z,998.55
2018-01-14T08:54:50.349Z,998.52
2018-01-14T08:56:00.332Z,998.51
2018-01-14T08:57:10.051Z,998.47
2018-01-14T08:58:20.028Z,998.5
2018-01-14T08:59:29.739Z,998.54
2018-01-14T09:00:39.783Z,998.49
2018-01-14T09:01:49.236Z,998.45
2018-01-14T09:02:58.942Z,998.45
2018-01-14T09:04:08.916Z,998.43
2018-01-14T09:05:18.893Z,998.41
2018-01-14T09:06:28.865Z,998.39
2018-01-14T09:07:38.839Z,998.4
2018-01-14T09:08:48.812Z,998.41
2018-01-14T09:09:58.531Z,998.4
2018-01-14T09:11:08.245Z,998.35
2018-01-14T09:12:18.221Z,998.4
2018-01-14T09:13:28.196Z,998.36
2018-01-14T09:14:37.647Z,998.39
2018-01-14T09:15:47.369Z,998.38
2018-01-14T09:16:57.353Z,998.41
2018-01-14T09:18:07.331Z,998.34
2018-01-14T09:19:17.313Z,998.32
2018-01-14T09:20:27.282Z,998.33
2018-01-14T09:21:37.257Z,998.35
2018-01-14T09:22:46.980Z,998.35
2018-01-14T09:23:56.953Z,998.37
2018-01-14T09:25:06.930Z,998.34
2018-01-14T09:26:16.698Z,998.39
2018-01-14T09:27:26.413Z,998.34
2018-01-14T09:28:36.384Z,998.33
2018-01-14T09:29:46.354Z,998.34
2018-01-14T09:30:56.066Z,998.25
2018-01-14T09:32:05.513Z,998.21
2018-01-14T09:33:15.224Z,998.23
2018-01-14T09:34:24.670Z,998.26
2018-01-14T09:35:34.378Z,998.3
2018-01-14T09:36:44.087Z,998.3
2018-01-14T09:37:53.798Z,998.28
2018-01-14T09:39:03.505Z,998.32
2018-01-14T09:40:13.478Z,998.3
2018-01-14T09:41:23.448Z,998.36
2018-01-14T09:42:33.180Z,998.38
2018-01-14T09:43:43.160Z,998.39
2018-01-14T09:44:53.131Z,998.38
2018-01-14T09:46:03.104Z,998.38
2018-01-14T09:47:13.075Z,998.39
2018-01-14T09:48:22.780Z,998.32
2018-01-14T09:49:32.490Z,998.29
2018-01-14T09:50:42.461Z,998.25
2018-01-14T09:51:52.171Z,998.29
2018-01-14T09:53:02.242Z,998.33
2018-01-14T09:54:12.232Z,998.29
2018-01-14T09:55:21.936Z,998.31
2018-01-14T09:56:31.907Z,998.29
2018-01-14T09:57:41.891Z,998.32
2018-01-14T09:58:51.871Z,998.35
2018-01-14T10:00:01.579Z,998.31
2018-01-14T10:01:11.021Z,998.33
2018-01-14T10:02:20.461Z,998.29
2018-01-14T10:03:30.178Z,998.28
2018-01-14T10:04:39.889Z,998.22
2018-01-14T10:05:49.866Z,998.18
2018-01-14T10:06:59.586Z,998.24
2018-01-14T10:08:09.566Z,998.22
2018-01-14T10:09:19.555Z,998.28
2018-01-14T10:10:29.301Z,998.26
2018-01-14T10:11:39.016Z,998.31
2018-01-14T10:12:48.725Z,998.34
2018-01-14T10:13:58.703Z,998.33
2018-01-14T10:15:08.411Z,998.34
2018-01-14T10:16:18.122Z,998.28
2018-01-14T10:17:28.094Z,998.23
2018-01-14T10:18:38.085Z,998.2
2018-01-14T10:19:48.069Z,998.17
2018-01-14T10:20:57.513Z,998.2
2018-01-14T10:22:07.485Z,998.18
2018-01-14T10:23:17.199Z,998.14
2018-01-14T10:24:26.645Z,998.16
2018-01-14T10:25:36.404Z,998.15
2018-01-14T10:26:46.110Z,998.18
2018-01-14T10:27:55.820Z,998.16
2018-01-14T10:29:05.534Z,998.17
2018-01-14T10:30:15.241Z,998.11
2018-01-14T10:31:25.214Z,998.06
2018-01-14T10:32:34.922Z,998.07
2018-01-14T10:33:44.945Z,998.01
2018-01-14T10:34:54.658Z,997.93
2018-01-14T10:36:04.635Z,997.89
2018-01-14T10:37:14.357Z,997.85
2018-01-14T10:38:24.384Z,997.8
2018-01-14T10:39:34.095Z,997.78
2018-01-14T10:40:43.807Z,997.76
2018-01-14T10:41:53.783Z,997.72
2018-01-14T10:43:03.489Z,997.68
2018-01-14T10:44:12.682Z,997.72
2018-01-14T10:45:22.393Z,997.68
2018-01-14T10:46:31.843Z,997.68
2018-01-14T10:47:41.558Z,997.68
2018-01-14T10:48:51.266Z,997.64
2018-01-14T10:50:00.972Z,997.59
2018-01-14T10:51:10.681Z,997.56
2018-01-14T10:52:20.661Z,997.52
2018-01-14T10:53:30.646Z,997.49
2018-01-14T10:54:40.098Z,997.48
2018-01-14T10:55:50.070Z,997.51
2018-01-14T10:56:59.776Z,997.53
2018-01-14T10:58:09.755Z,997.52
2018-01-14T10:59:19.744Z,997.5
2018-01-14T11:00:29.451Z,997.48
2018-01-14T11:01:39.163Z,997.43
2018-01-14T11:02:49.139Z,997.46
2018-01-14T11:03:59.115Z,997.4
2018-01-14T11:05:09.087Z,997.49
2018-01-14T11:06:19.065Z,997.41
2018-01-14T11:07:29.037Z,997.41
2018-01-14T11:08:39.011Z,997.41
2018-01-14T11:09:48.982Z,997.38
2018-01-14T11:10:58.964Z,997.23
2018-01-14T11:12:08.678Z,997.24
2018-01-14T11:13:18.393Z,997.23
2018-01-14T11:14:28.200Z,997.21
2018-01-14T11:15:38.176Z,997.23
2018-01-14T11:16:47.883Z,997.21
2018-01-14T11:17:57.595Z,997.17
2018-01-14T11:19:07.575Z,997.13
2018-01-14T11:20:17.029Z,997.14
2018-01-14T11:21:27.060Z,997.1
2018-01-14T11:22:37.036Z,997.09
2018-01-14T11:23:46.484Z,997.1
2018-01-14T11:24:56.491Z,997.13
2018-01-14T11:26:05.935Z,997.16
2018-01-14T11:27:16.011Z,997.16
2018-01-14T11:28:26.008Z,997.1
2018-01-14T11:29:35.241Z,997.07
2018-01-14T11:30:45.219Z,997.08
2018-01-14T11:31:55.199Z,997.09
2018-01-14T11:33:05.224Z,997.14
2018-01-14T11:34:14.411Z,997.12
2018-01-14T11:35:24.124Z,997.18
2018-01-14T11:36:34.098Z,997.11
2018-01-14T11:37:44.071Z,997.1
2018-01-14T11:38:53.514Z,997.1
2018-01-14T11:40:03.494Z,997.07
2018-01-14T11:41:12.938Z,997.04
2018-01-14T11:42:22.647Z,997.06
2018-01-14T11:43:32.140Z,997.01
2018-01-14T11:44:41.849Z,997.04
2018-01-14T11:45:51.822Z,997.01
2018-01-14T11:47:01.795Z,996.98
2018-01-14T11:48:11.822Z,996.96
2018-01-14T11:49:21.267Z,996.95
2018-01-14T11:50:30.711Z,996.89
2018-01-14T11:51:40.734Z,996.88
2018-01-14T11:52:50.439Z,996.86
2018-01-14T11:54:00.423Z,996.82
2018-01-14T11:55:10.143Z,996.84
2018-01-14T11:56:19.853Z,996.8
2018-01-14T11:57:29.560Z,996.76
2018-01-14T11:58:39.569Z,996.8
2018-01-14T11:59:49.279Z,996.85
2018-01-14T12:00:59.251Z,996.82
2018-01-14T12:02:09.227Z,996.86
2018-01-14T12:03:18.945Z,996.82
2018-01-14T12:04:28.650Z,996.8
2018-01-14T12:05:38.629Z,996.79
2018-01-14T12:06:48.641Z,996.74
2018-01-14T12:07:58.647Z,996.64
2018-01-14T12:09:08.409Z,996.67
2018-01-14T12:10:18.119Z,996.63
2018-01-14T12:11:28.100Z,996.55
2018-01-14T12:12:38.185Z,996.52
2018-01-14T12:13:47.901Z,996.45
2018-01-14T12:14:57.902Z,996.47
2018-01-14T12:16:07.875Z,996.38
2018-01-14T12:17:17.848Z,996.38
2018-01-14T12:18:27.823Z,996.44
2018-01-14T12:19:37.534Z,996.47
2018-01-14T12:20:47.513Z,996.47
2018-01-14T12:21:56.961Z,996.52
2018-01-14T12:23:06.950Z,996.51
2018-01-14T12:24:16.660Z,996.56
2018-01-14T12:25:26.372Z,996.52
2018-01-14T12:26:36.082Z,996.51
2018-01-14T12:27:46.050Z,996.49
2018-01-14T12:28:55.494Z,996.51
2018-01-14T12:30:05.000Z,996.53
2018-01-14T12:31:14.460Z,996.52
2018-01-14T12:32:24.434Z,996.53
2018-01-14T12:33:34.408Z,996.58
2018-01-14T12:34:44.381Z,996.55
2018-01-14T12:35:54.090Z,996.55
2018-01-14T12:37:03.535Z,996.45
2018-01-14T12:38:13.510Z,996.4
2018-01-14T12:39:23.488Z,996.39
2018-01-14T12:40:33.602Z,996.33
2018-01-14T12:41:43.575Z,996.29
2018-01-14T12:42:53.662Z,996.22
2018-01-14T12:44:03.669Z,996.24
2018-01-14T12:45:12.896Z,996.23
2018-01-14T12:46:22.869Z,996.11
2018-01-14T12:47:32.870Z,996.04
2018-01-14T12:48:42.589Z,996.09
2018-01-14T12:49:52.034Z,996.06
2018-01-14T12:51:01.740Z,996.09
2018-01-14T12:52:11.448Z,996.09
2018-01-14T12:53:21.156Z,996.08
2018-01-14T12:54:30.864Z,996.05
2018-01-14T12:55:40.584Z,996.02
2018-01-14T12:56:50.292Z,995.97
2018-01-14T12:58:00.269Z,996.01
2018-01-14T12:59:09.985Z,995.99
2018-01-14T13:00:19.964Z,995.96
2018-01-14T13:01:29.672Z,996.04
2018-01-14T13:02:39.695Z,996.03
2018-01-14T13:03:49.399Z,996.07
2018-01-14T13:04:59.116Z,996.05
2018-01-14T13:06:08.295Z,995.99
2018-01-14T13:07:18.270Z,995.98
2018-01-14T13:08:28.247Z,996
2018-01-14T13:09:38.218Z,996.06
2018-01-14T13:10:47.934Z,996.02
2018-01-14T13:11:57.909Z,995.95
2018-01-14T13:13:07.613Z,995.95
2018-01-14T13:14:17.587Z,995.95
2018-01-14T13:15:27.312Z,995.93
2018-01-14T13:16:37.368Z,995.86
2018-01-14T13:17:47.348Z,995.85
2018-01-14T13:18:57.323Z,995.91
2018-01-14T13:20:07.033Z,995.89
2018-01-14T13:21:17.007Z,995.83
2018-01-14T13:22:26.716Z,995.83
2018-01-14T13:23:36.422Z,995.84
2018-01-14T13:24:46.395Z,995.88
2018-01-14T13:25:56.382Z,995.86
2018-01-14T13:27:06.088Z,995.87
2018-01-14T13:28:15.798Z,995.89
2018-01-14T13:29:25.767Z,995.88
2018-01-14T13:30:35.746Z,995.89
2018-01-14T13:31:45.716Z,995.81
2018-01-14T13:32:55.432Z,995.83
2018-01-14T13:34:04.877Z,995.79
2018-01-14T13:35:14.591Z,995.71
2018-01-14T13:36:24.563Z,995.69
2018-01-14T13:37:34.540Z,995.73
2018-01-14T13:38:44.252Z,995.76
2018-01-14T13:39:53.696Z,995.75
2018-01-14T13:41:03.670Z,995.76
2018-01-14T13:42:13.643Z,995.74
2018-01-14T13:43:23.088Z,995.78
2018-01-14T13:44:33.091Z,995.8
2018-01-14T13:45:42.851Z,995.8
2018-01-14T13:46:52.827Z,995.78
2018-01-14T13:48:02.806Z,995.81
2018-01-14T13:49:12.783Z,995.74
2018-01-14T13:50:22.787Z,995.72
2018-01-14T13:51:32.756Z,995.68
2018-01-14T13:52:42.465Z,995.68
2018-01-14T13:53:52.446Z,995.65
2018-01-14T13:55:02.423Z,995.66
2018-01-14T13:56:11.868Z,995.64
2018-01-14T13:57:21.894Z,995.57
2018-01-14T13:58:31.868Z,995.58
2018-01-14T13:59:41.586Z,995.56
2018-01-14T14:00:51.559Z,995.54
2018-01-14T14:02:01.547Z,995.55
2018-01-14T14:03:11.677Z,995.5
2018-01-14T14:04:21.129Z,995.47
2018-01-14T14:05:31.103Z,995.46
2018-01-14T14:06:41.079Z,995.46
2018-01-14T14:07:50.786Z,995.44
2018-01-14T14:09:00.493Z,995.48
2018-01-14T14:10:10.205Z,995.48
2018-01-14T14:11:20.186Z,995.46
2018-01-14T14:12:29.633Z,995.43
2018-01-14T14:13:39.601Z,995.39
2018-01-14T14:14:49.047Z,995.33
2018-01-14T14:15:59.064Z,995.35
2018-01-14T14:17:09.036Z,995.29
2018-01-14T14:18:19.028Z,995.21
2018-01-14T14:19:29.050Z,995.17
2018-01-14T14:20:38.829Z,995.09
2018-01-14T14:21:48.821Z,995.07
2018-01-14T14:22:58.844Z,995.09
2018-01-14T14:24:08.616Z,995.06
2018-01-14T14:25:18.590Z,995.1
2018-01-14T14:26:28.040Z,995.02
2018-01-14T14:27:38.012Z,995
2018-01-14T14:28:47.461Z,995.03